Time;durP1;ratioP1;P1;durP2;ratioP2;P2;SDS_P1;SDS_P2;PMS_P1;PMS_P2;Temp;Humidity;BMP_temperature;BMP_pressure;BME280_temperature;BME280_humidity;BME280_pressure;Samples;Min_cycle;Max_cycle;Signal;HPM_P1;HPM_P2
2023/06/29 00:01:07;;;;;;;12.30;11.20;;;22.70;62.20;;;;;;5052182;28;20258;-66
2023/06/29 00:03:33;;;;;;;12.85;11.55;;;22.70;62.10;;;;;;5051726;28;20194;-67
2023/06/29 00:05:59;;;;;;;13.10;11.77;;;22.70;62.20;;;;;;5052413;28;20175;-66
2023/06/29 00:08:25;;;;;;;13.13;11.82;;;22.70;63.20;;;;;;5052618;28;20183;-66
2023/06/29 00:10:52;;;;;;;12.90;11.60;;;22.60;62.20;;;;;;5051851;28;20186;-65
2023/06/29 00:13:17;;;;;;;14.43;11.73;;;22.70;62.30;;;;;;5052054;28;20290;-66
2023/06/29 00:15:43;;;;;;;13.85;12.55;;;22.70;62.40;;;;;;5051623;28;20198;-65
2023/06/29 00:18:09;;;;;;;13.57;12.13;;;22.60;62.30;;;;;;5052089;28;20175;-65
2023/06/29 00:20:35;;;;;;;13.27;11.88;;;22.70;62.50;;;;;;5052623;28;20584;-64
2023/06/29 00:23:03;;;;;;;14.30;12.48;;;22.70;62.50;;;;;;5051543;28;20179;-66
2023/06/29 00:25:29;;;;;;;13.68;12.15;;;22.70;62.50;;;;;;5052198;28;20702;-65
2023/06/29 00:27:54;;;;;;;12.00;10.75;;;22.70;62.50;;;;;;5052240;28;20270;-65
2023/06/29 00:30:20;;;;;;;13.80;12.20;;;22.70;62.60;;;;;;5051317;28;20262;-66
2023/06/29 00:32:46;;;;;;;12.30;11.00;;;22.70;62.50;;;;;;5052154;28;20588;-66
2023/06/29 00:35:12;;;;;;;14.45;12.90;;;22.70;62.60;;;;;;5054814;28;20210;-66
2023/06/29 00:37:39;;;;;;;13.88;12.18;;;22.70;63.50;;;;;;5055449;28;20207;-66
2023/06/29 00:40:05;;;;;;;13.60;12.27;;;22.70;62.70;;;;;;5055425;28;20222;-65
2023/06/29 00:42:30;;;;;;;13.48;12.15;;;22.70;62.70;;;;;;5056040;28;20182;-65
2023/06/29 00:44:56;;;;;;;14.60;13.07;;;22.60;62.70;;;;;;5054856;28;20254;-66
2023/06/29 00:47:21;;;;;;;14.10;12.60;;;22.70;62.70;;;;;;5055734;28;20175;-66
2023/06/29 00:49:47;;;;;;;14.43;12.63;;;22.60;62.60;;;;;;5055711;28;20175;-66
2023/06/29 00:52:12;;;;;;;14.63;13.13;;;22.60;62.70;;;;;;5053618;28;20175;-66
2023/06/29 00:54:38;;;;;;;13.77;12.48;;;22.60;62.70;;;;;;5054535;28;20211;-66
2023/06/29 00:57:04;;;;;;;14.07;12.60;;;22.60;62.70;;;;;;5055399;28;20630;-66
2023/06/29 00:59:29;;;;;;;14.45;13.05;;;22.60;62.80;;;;;;5055021;28;20186;-66
2023/06/29 01:01:55;;;;;;;13.88;12.48;;;22.60;62.80;;;;;;5055631;28;20656;-66
2023/06/29 01:04:25;;;;;;;15.05;13.27;;;22.60;62.70;;;;;;5054535;28;20662;-66
2023/06/29 01:07:28;;;;;;;13.68;12.38;;;22.60;62.70;;;;;;5053949;28;20237;-67
2023/06/29 01:09:54;;;;;;;13.48;12.27;;;22.60;62.80;;;;;;5054062;28;20645;-65
2023/06/29 01:12:19;;;;;;;14.05;12.65;;;22.60;62.70;;;;;;5053058;28;20175;-65
2023/06/29 01:14:45;;;;;;;13.82;12.43;;;22.60;62.80;;;;;;5055507;28;20197;-65
2023/06/29 01:17:12;;;;;;;14.00;12.60;;;22.60;62.70;;;;;;5054027;28;20182;-65
2023/06/29 01:19:38;;;;;;;14.43;13.02;;;22.60;62.70;;;;;;5053440;28;20190;-65
2023/06/29 01:22:08;;;;;;;14.43;12.95;;;22.60;62.70;;;;;;5053832;28;20229;-65
2023/06/29 01:24:38;;;;;;;14.88;13.48;;;22.60;62.80;;;;;;5053734;28;20171;-65
2023/06/29 01:27:04;;;;;;;14.30;12.80;;;22.60;62.70;;;;;;5053506;28;20210;-65
2023/06/29 01:29:30;;;;;;;13.40;12.10;;;22.60;62.60;;;;;;5054042;28;20175;-65
2023/06/29 01:31:59;;;;;;;13.93;12.43;;;22.60;62.60;;;;;;5053703;28;20183;-67
2023/06/29 01:34:27;;;;;;;14.95;12.77;;;22.60;62.70;;;;;;5054274;28;20215;-66
2023/06/29 01:36:52;;;;;;;13.30;12.00;;;22.60;62.70;;;;;;5053847;28;20179;-66
2023/06/29 01:39:21;;;;;;;14.45;13.02;;;22.60;62.60;;;;;;5053175;28;20233;-65
2023/06/29 01:41:46;;;;;;;14.32;13.02;;;22.60;63.50;;;;;;5054208;28;20171;-65
2023/06/29 01:44:16;;;;;;;14.13;12.63;;;22.60;62.60;;;;;;5053259;28;20182;-66
2023/06/29 01:46:42;;;;;;;14.00;12.68;;;22.60;62.70;;;;;;5054573;28;20214;-66
2023/06/29 01:49:08;;;;;;;13.88;12.38;;;22.60;63.50;;;;;;5053865;28;20186;-67
2023/06/29 01:51:33;;;;;;;13.55;12.25;;;22.60;62.70;;;;;;5053514;28;20175;-66
2023/06/29 01:53:59;;;;;;;15.13;13.57;;;22.50;62.40;;;;;;5052902;28;20243;-66
2023/06/29 01:56:24;;;;;;;14.60;13.13;;;22.50;62.50;;;;;;5053775;28;20180;-66
2023/06/29 01:58:50;;;;;;;13.45;12.18;;;22.60;62.60;;;;;;5054407;28;20179;-65
2023/06/29 02:01:15;;;;;;;14.45;12.43;;;22.50;62.50;;;;;;5053437;28;20183;-67
2023/06/29 02:03:41;;;;;;;14.73;12.75;;;22.50;62.50;;;;;;5054471;28;20181;-66
2023/06/29 02:06:06;;;;;;;13.68;12.38;;;22.50;63.40;;;;;;5054193;28;20248;-66
2023/06/29 02:08:33;;;;;;;13.50;12.23;;;22.50;62.40;;;;;;5053686;28;20178;-65
2023/06/29 02:10:58;;;;;;;14.15;12.75;;;22.50;62.40;;;;;;5054107;28;20259;-65
2023/06/29 02:13:24;;;;;;;15.38;13.85;;;22.50;62.40;;;;;;5054294;28;20298;-65
2023/06/29 02:15:49;;;;;;;15.38;12.45;;;22.50;62.50;;;;;;5053558;28;20174;-65
2023/06/29 02:18:15;;;;;;;14.25;12.85;;;22.50;63.30;;;;;;5053996;28;20229;-65
2023/06/29 02:20:41;;;;;;;14.40;12.90;;;22.50;62.50;;;;;;5054240;28;20240;-64
2023/06/29 02:23:06;;;;;;;13.93;12.50;;;22.50;63.20;;;;;;5053118;28;20171;-66
2023/06/29 02:25:32;;;;;;;14.18;12.77;;;22.50;62.50;;;;;;5054117;28;20175;-64
2023/06/29 02:27:57;;;;;;;14.30;12.82;;;22.50;63.40;;;;;;5053841;28;20203;-65
2023/06/29 02:30:23;;;;;;;14.18;12.68;;;22.50;62.40;;;;;;5053385;28;20634;-66
2023/06/29 02:32:48;;;;;;;14.40;12.90;;;22.50;62.50;;;;;;5053783;28;20199;-66
2023/06/29 02:35:14;;;;;;;14.07;12.68;;;22.50;62.40;;;;;;5053387;28;20574;-66
2023/06/29 02:37:39;;;;;;;14.45;13.10;;;22.50;62.40;;;;;;5052940;28;20305;-66
2023/06/29 02:40:06;;;;;;;14.50;12.75;;;22.50;62.40;;;;;;5053231;28;20227;-65
2023/06/29 02:42:32;;;;;;;13.52;12.23;;;22.50;62.50;;;;;;5053508;28;20183;-66
2023/06/29 02:44:57;;;;;;;13.88;12.18;;;22.50;62.40;;;;;;5052824;28;20233;-66
2023/06/29 02:47:23;;;;;;;14.40;12.98;;;22.50;62.50;;;;;;5053729;28;20671;-67
2023/06/29 02:49:48;;;;;;;13.40;12.10;;;22.50;62.40;;;;;;5053598;28;20175;-66
2023/06/29 02:52:14;;;;;;;14.40;12.98;;;22.50;63.40;;;;;;5052445;28;20202;-66
2023/06/29 02:54:39;;;;;;;13.43;12.13;;;22.50;62.50;;;;;;5053531;28;20210;-66
2023/06/29 02:57:05;;;;;;;14.18;12.70;;;22.50;62.50;;;;;;5052603;28;20167;-66
2023/06/29 02:59:30;;;;;;;14.23;12.23;;;22.50;62.60;;;;;;5052870;28;20259;-67
2023/06/29 03:01:56;;;;;;;13.80;12.45;;;22.50;62.50;;;;;;5053211;28;20198;-66
2023/06/29 03:04:21;;;;;;;13.15;11.77;;;22.50;62.50;;;;;;5053305;28;20229;-66
2023/06/29 03:06:47;;;;;;;13.27;11.95;;;22.50;62.60;;;;;;5052428;28;20171;-65
2023/06/29 03:09:12;;;;;;;13.70;12.30;;;22.50;62.40;;;;;;5052807;28;20179;-66
2023/06/29 03:11:38;;;;;;;13.18;11.88;;;22.50;62.60;;;;;;5052666;28;20258;-66
2023/06/29 03:14:04;;;;;;;14.02;12.57;;;22.50;62.60;;;;;;5052986;28;20214;-66
2023/06/29 03:16:29;;;;;;;14.27;12.82;;;22.50;62.50;;;;;;5053381;28;20171;-66
2023/06/29 03:18:55;;;;;;;14.38;12.88;;;22.50;62.50;;;;;;5052279;28;20270;-64
2023/06/29 03:21:20;;;;;;;13.18;11.77;;;22.50;62.70;;;;;;5052651;28;20171;-65
2023/06/29 03:23:46;;;;;;;13.15;11.85;;;22.50;62.60;;;;;;5052873;28;20167;-64
2023/06/29 03:26:12;;;;;;;14.75;12.48;;;22.50;62.50;;;;;;5052151;28;20171;-65
2023/06/29 03:28:38;;;;;;;14.63;13.13;;;22.40;62.50;;;;;;5052850;28;20657;-65
2023/06/29 03:31:03;;;;;;;14.35;12.95;;;22.40;62.50;;;;;;5052472;28;20179;-66
2023/06/29 03:33:29;;;;;;;14.00;12.50;;;22.40;62.60;;;;;;5051976;28;20199;-67
2023/06/29 03:35:54;;;;;;;13.98;12.55;;;22.50;62.60;;;;;;5052723;28;20178;-66
2023/06/29 03:38:20;;;;;;;13.75;12.35;;;22.40;62.60;;;;;;5052213;28;20218;-66
2023/06/29 03:40:46;;;;;;;15.07;13.38;;;22.50;62.70;;;;;;5052283;28;20175;-65
2023/06/29 03:43:11;;;;;;;14.10;12.57;;;22.50;62.70;;;;;;5052626;28;20178;-66
2023/06/29 03:45:37;;;;;;;14.00;12.55;;;22.50;62.70;;;;;;5052876;28;20174;-66
2023/06/29 03:48:02;;;;;;;13.88;12.48;;;22.50;62.70;;;;;;5051723;28;20198;-66
2023/06/29 03:50:28;;;;;;;14.35;12.88;;;22.50;62.70;;;;;;5052726;28;20179;-66
2023/06/29 03:52:54;;;;;;;13.70;12.40;;;22.40;62.80;;;;;;5052558;28;20226;-66
2023/06/29 03:55:19;;;;;;;14.25;12.85;;;22.50;62.70;;;;;;5051636;28;20254;-66
2023/06/29 03:57:45;;;;;;;13.90;12.50;;;22.50;62.90;;;;;;5052716;28;20174;-65
2023/06/29 04:00:11;;;;;;;13.25;11.95;;;22.50;62.90;;;;;;5052316;28;20198;-66
2023/06/29 04:02:36;;;;;;;13.40;11.95;;;22.50;62.90;;;;;;5051983;28;20183;-66
2023/06/29 04:05:03;;;;;;;13.90;12.43;;;22.50;62.90;;;;;;5052334;28;20217;-66
2023/06/29 04:07:28;;;;;;;12.88;11.57;;;22.50;63.00;;;;;;5052529;28;20240;-66
2023/06/29 04:09:54;;;;;;;13.90;12.38;;;22.40;62.90;;;;;;5056011;28;20167;-65
2023/06/29 04:12:20;;;;;;;13.38;11.98;;;22.50;62.90;;;;;;5056397;28;20250;-65
2023/06/29 04:14:46;;;;;;;13.48;12.07;;;22.40;63.00;;;;;;5056476;28;20556;-64
2023/06/29 04:17:11;;;;;;;13.38;12.02;;;22.40;63.10;;;;;;5055307;28;20267;-65
2023/06/29 04:19:37;;;;;;;12.88;11.63;;;22.50;63.10;;;;;;5056623;28;20171;-65
2023/06/29 04:22:02;;;;;;;13.40;12.00;;;22.50;63.10;;;;;;5055162;28;20171;-65
2023/06/29 04:24:28;;;;;;;14.32;12.57;;;22.50;63.20;;;;;;5056466;28;20236;-65
2023/06/29 04:26:53;;;;;;;14.15;12.60;;;22.40;63.10;;;;;;5056372;28;20179;-65
2023/06/29 04:29:19;;;;;;;13.43;12.02;;;22.40;63.20;;;;;;5055124;28;20262;-65
2023/06/29 04:31:45;;;;;;;13.77;12.38;;;22.50;63.20;;;;;;5056197;28;20179;-66
2023/06/29 04:34:10;;;;;;;14.50;12.43;;;22.50;63.40;;;;;;5055779;28;20264;-67
2023/06/29 04:36:36;;;;;;;15.27;13.27;;;22.50;63.40;;;;;;5055200;28;20178;-66
2023/06/29 04:39:01;;;;;;;14.02;12.63;;;22.50;63.30;;;;;;5055531;28;20241;-65
2023/06/29 04:41:33;;;;;;;13.93;12.48;;;22.50;64.20;;;;;;5056080;28;20171;-65
2023/06/29 04:43:59;;;;;;;15.32;13.25;;;22.50;63.50;;;;;;5055114;28;20172;-66
2023/06/29 04:46:28;;;;;;;13.90;12.40;;;22.40;63.50;;;;;;5055704;28;20253;-66
2023/06/29 04:48:54;;;;;;;14.95;13.45;;;22.50;63.50;;;;;;5055770;28;20179;-66
2023/06/29 04:51:20;;;;;;;13.65;12.25;;;22.50;63.50;;;;;;5054665;28;20171;-66
2023/06/29 04:53:45;;;;;;;14.18;12.48;;;22.40;63.50;;;;;;5055624;28;20297;-66
2023/06/29 04:56:11;;;;;;;13.85;12.43;;;22.50;63.60;;;;;;5055556;28;20320;-66
2023/06/29 04:58:36;;;;;;;13.98;12.55;;;22.50;63.50;;;;;;5054966;28;20202;-66
2023/06/29 05:01:03;;;;;;;14.23;12.82;;;22.50;64.40;;;;;;5055219;28;20220;-66
2023/06/29 05:03:29;;;;;;;15.70;13.98;;;22.50;63.70;;;;;;5055796;28;20258;-66
2023/06/29 05:05:54;;;;;;;14.25;12.75;;;22.50;63.70;;;;;;5054669;28;20254;-66
2023/06/29 05:08:20;;;;;;;13.55;12.15;;;22.50;63.70;;;;;;5055346;28;20223;-66
2023/06/29 05:10:45;;;;;;;14.13;12.60;;;22.50;63.60;;;;;;5055490;28;20180;-65
2023/06/29 05:13:11;;;;;;;14.88;13.38;;;22.50;63.70;;;;;;5054383;28;20214;-65
2023/06/29 05:15:36;;;;;;;15.32;13.82;;;22.50;63.80;;;;;;5055446;28;20171;-65
2023/06/29 05:18:02;;;;;;;14.65;13.23;;;22.50;63.80;;;;;;5054919;28;20182;-65
2023/06/29 05:20:28;;;;;;;15.18;13.48;;;22.50;63.80;;;;;;5053994;28;20308;-65
2023/06/29 05:22:54;;;;;;;15.05;13.55;;;22.50;63.90;;;;;;5055257;28;20178;-67
2023/06/29 05:25:19;;;;;;;15.45;13.63;;;22.50;64.70;;;;;;5054460;28;20179;-66
2023/06/29 05:27:45;;;;;;;15.63;13.90;;;22.50;63.90;;;;;;5055202;28;20581;-65
2023/06/29 05:30:13;;;;;;;15.85;14.00;;;22.50;63.90;;;;;;5054782;28;20780;-66
2023/06/29 05:32:38;;;;;;;15.60;13.95;;;22.50;63.90;;;;;;5054140;28;20167;-66
2023/06/29 05:35:04;;;;;;;15.48;13.80;;;22.50;64.00;;;;;;5054935;28;20619;-66
2023/06/29 05:37:30;;;;;;;14.75;13.25;;;22.50;63.90;;;;;;5055111;28;20171;-66
2023/06/29 05:39:56;;;;;;;15.52;13.85;;;22.50;64.00;;;;;;5053670;28;20223;-66
2023/06/29 05:42:23;;;;;;;16.65;14.38;;;22.50;63.90;;;;;;5054904;28;20642;-66
2023/06/29 05:44:48;;;;;;;15.30;13.77;;;22.50;64.00;;;;;;5054854;28;20172;-66
2023/06/29 05:47:14;;;;;;;17.15;14.55;;;22.50;63.90;;;;;;5053776;28;20182;-67
2023/06/29 05:49:39;;;;;;;16.35;14.60;;;22.50;64.00;;;;;;5054648;28;20642;-67
2023/06/29 05:52:05;;;;;;;15.85;13.95;;;22.50;64.00;;;;;;5054362;28;20676;-67
2023/06/29 05:54:31;;;;;;;16.48;14.68;;;22.50;63.90;;;;;;5054017;28;20211;-66
2023/06/29 05:56:56;;;;;;;16.75;15.00;;;22.50;63.80;;;;;;5054473;28;20527;-66
2023/06/29 05:59:22;;;;;;;17.13;15.32;;;22.50;63.80;;;;;;5054793;28;20258;-67
2023/06/29 06:01:47;;;;;;;16.45;14.75;;;22.50;63.80;;;;;;5053741;28;20634;-66
2023/06/29 06:04:14;;;;;;;15.27;13.65;;;22.50;63.80;;;;;;5054056;28;20265;-66
2023/06/29 06:06:39;;;;;;;17.05;15.20;;;22.60;64.70;;;;;;5054573;28;20232;-66
2023/06/29 06:09:05;;;;;;;15.98;14.35;;;22.60;63.90;;;;;;5053297;28;20171;-66
2023/06/29 06:11:30;;;;;;;16.42;14.77;;;22.60;63.70;;;;;;5054329;28;20182;-66
2023/06/29 06:13:56;;;;;;;16.85;15.02;;;22.60;63.70;;;;;;5053964;28;20218;-66
2023/06/29 06:16:22;;;;;;;16.33;14.63;;;22.60;63.90;;;;;;5053308;28;20670;-66
2023/06/29 06:18:47;;;;;;;16.10;14.45;;;22.60;64.60;;;;;;5054311;28;20659;-65
2023/06/29 06:21:13;;;;;;;16.70;14.90;;;22.60;63.70;;;;;;5053952;28;20194;-66
2023/06/29 06:23:38;;;;;;;15.60;14.02;;;22.60;63.70;;;;;;5053434;28;20186;-65
2023/06/29 06:26:04;;;;;;;16.15;14.52;;;22.60;63.80;;;;;;5053616;28;20254;-65
2023/06/29 06:28:29;;;;;;;16.08;14.48;;;22.60;63.80;;;;;;5053094;28;20178;-66
2023/06/29 06:30:55;;;;;;;17.08;15.02;;;22.60;63.70;;;;;;5053482;28;20168;-66
2023/06/29 06:33:20;;;;;;;16.05;14.32;;;22.60;63.80;;;;;;5053056;28;20209;-67
2023/06/29 06:35:46;;;;;;;18.25;15.15;;;22.60;63.70;;;;;;5053217;28;20177;-66
2023/06/29 06:38:11;;;;;;;16.15;14.45;;;22.60;64.60;;;;;;5053179;28;20215;-65
2023/06/29 06:40:37;;;;;;;16.65;15.05;;;22.70;63.90;;;;;;5053820;28;20218;-65
2023/06/29 06:43:03;;;;;;;15.48;13.88;;;22.60;63.70;;;;;;5052877;28;20624;-66
2023/06/29 06:45:29;;;;;;;16.15;14.45;;;22.70;63.90;;;;;;5053584;28;20195;-67
2023/06/29 06:47:55;;;;;;;16.50;14.80;;;22.60;63.90;;;;;;5053566;28;20230;-66
2023/06/29 06:50:20;;;;;;;17.23;14.95;;;22.60;63.90;;;;;;5052897;28;20179;-67
2023/06/29 06:52:47;;;;;;;16.38;14.77;;;22.60;63.90;;;;;;5053496;28;20175;-66
2023/06/29 06:55:12;;;;;;;16.05;14.25;;;22.60;64.10;;;;;;5053264;28;20190;-66
2023/06/29 06:57:43;;;;;;;15.68;14.10;;;22.60;64.00;;;;;;5052730;28;20552;-66
2023/06/29 07:00:13;;;;;;;17.33;15.52;;;22.60;64.00;;;;;;5052916;28;20174;-67
2023/06/29 07:02:39;;;;;;;17.10;15.30;;;22.60;63.90;;;;;;5053243;28;20210;-66
2023/06/29 07:05:05;;;;;;;16.08;14.38;;;22.60;63.90;;;;;;5052493;28;20214;-67
2023/06/29 07:07:31;;;;;;;17.25;14.50;;;22.60;63.90;;;;;;5053262;28;20171;-66
2023/06/29 07:09:56;;;;;;;16.38;14.43;;;22.70;63.90;;;;;;5052858;28;20175;-66
2023/06/29 07:12:22;;;;;;;18.05;14.35;;;22.70;63.90;;;;;;5052342;28;20182;-65
2023/06/29 07:14:49;;;;;;;16.50;14.82;;;22.70;63.90;;;;;;5052926;28;20579;-65
2023/06/29 07:17:14;;;;;;;15.80;14.20;;;22.70;63.80;;;;;;5052936;28;20521;-62
2023/06/29 07:19:40;;;;;;;15.90;14.27;;;22.70;63.80;;;;;;5052504;28;20657;-62
2023/06/29 07:22:05;;;;;;;17.30;14.52;;;22.70;63.90;;;;;;5052407;28;20647;-62
2023/06/29 07:24:31;;;;;;;16.15;14.45;;;22.80;63.80;;;;;;5052908;28;20167;-62
2023/06/29 07:26:59;;;;;;;16.77;14.10;;;22.80;63.80;;;;;;5051928;28;20269;-66
2023/06/29 07:29:26;;;;;;;15.85;14.25;;;22.80;63.80;;;;;;5052925;28;20170;-67
2023/06/29 07:31:52;;;;;;;16.10;13.52;;;22.80;63.80;;;;;;5052516;28;20266;-67
2023/06/29 07:34:22;;;;;;;17.80;14.38;;;22.80;63.80;;;;;;5052715;28;20305;-67
2023/06/29 07:36:48;;;;;;;15.70;13.90;;;22.80;63.80;;;;;;5052658;28;20179;-66
2023/06/29 07:39:13;;;;;;;16.35;14.32;;;22.80;63.70;;;;;;5051468;28;20230;-66
2023/06/29 07:41:39;;;;;;;15.80;14.18;;;22.80;63.70;;;;;;5052635;28;20171;-66
2023/06/29 07:44:04;;;;;;;16.40;14.80;;;22.80;63.80;;;;;;5051937;28;20266;-67
2023/06/29 07:46:31;;;;;;;15.55;13.95;;;22.80;63.80;;;;;;5052234;28;20572;-67
2023/06/29 07:48:58;;;;;;;15.70;13.60;;;22.80;63.70;;;;;;5052319;28;20622;-69
2023/06/29 07:51:24;;;;;;;16.25;14.32;;;22.80;63.80;;;;;;5052838;28;20546;-67
2023/06/29 07:53:50;;;;;;;15.82;13.93;;;22.80;63.80;;;;;;5051953;28;20206;-66
2023/06/29 07:56:15;;;;;;;15.85;13.38;;;22.90;63.70;;;;;;5052417;28;20555;-66
2023/06/29 07:58:41;;;;;;;15.80;14.15;;;22.90;63.60;;;;;;5052521;28;20234;-66
2023/06/29 08:01:07;;;;;;;16.55;14.20;;;22.80;63.60;;;;;;5051761;28;20175;-67
2023/06/29 08:03:33;;;;;;;15.73;13.88;;;22.90;63.60;;;;;;5052333;28;20543;-67
2023/06/29 08:05:59;;;;;;;15.93;14.27;;;22.80;63.70;;;;;;5052171;28;20216;-67
2023/06/29 08:08:27;;;;;;;16.90;14.52;;;22.80;64.50;;;;;;5051706;28;20179;-67
2023/06/29 08:10:53;;;;;;;16.15;13.50;;;22.80;63.60;;;;;;5052320;28;20240;-66
2023/06/29 08:13:19;;;;;;;16.40;14.30;;;22.80;63.60;;;;;;5051642;28;20983;-66
2023/06/29 08:15:44;;;;;;;15.57;13.55;;;22.80;63.70;;;;;;5051480;28;20627;-65
2023/06/29 08:18:10;;;;;;;15.77;13.95;;;22.80;63.60;;;;;;5051954;28;20183;-66
2023/06/29 08:20:35;;;;;;;16.02;14.32;;;22.80;63.60;;;;;;5052444;28;20301;-65
2023/06/29 08:23:01;;;;;;;15.13;13.52;;;22.90;63.60;;;;;;5051194;28;20237;-66
2023/06/29 08:25:27;;;;;;;15.77;13.63;;;22.90;63.50;;;;;;5052118;28;20179;-65
2023/06/29 08:27:52;;;;;;;16.02;14.18;;;22.90;63.50;;;;;;5052213;28;20194;-66
2023/06/29 08:30:18;;;;;;;15.55;14.02;;;22.90;63.40;;;;;;5051442;28;20622;-67
2023/06/29 08:32:45;;;;;;;16.30;14.60;;;22.90;63.30;;;;;;5052368;28;20233;-66
2023/06/29 08:35:10;;;;;;;14.95;13.45;;;22.90;63.30;;;;;;5051428;28;20218;-67
2023/06/29 08:37:36;;;;;;;15.20;13.70;;;22.90;63.20;;;;;;5052069;28;20203;-66
2023/06/29 08:40:04;;;;;;;15.40;13.80;;;22.90;63.10;;;;;;5051836;28;20280;-66
2023/06/29 08:42:29;;;;;;;15.75;13.30;;;22.90;63.10;;;;;;5051621;28;20217;-66
2023/06/29 08:44:55;;;;;;;15.30;13.73;;;22.90;63.00;;;;;;5052028;28;20258;-67
2023/06/29 08:47:20;;;;;;;14.45;13.05;;;23.00;63.00;;;;;;5051985;28;20183;-67
2023/06/29 08:49:46;;;;;;;15.18;13.77;;;23.00;62.90;;;;;;5050347;28;20171;-67
2023/06/29 08:52:15;;;;;;;15.98;14.30;;;23.00;62.80;;;;;;5050696;28;20664;-66
2023/06/29 08:54:42;;;;;;;16.42;13.38;;;23.10;62.70;;;;;;5051244;28;20290;-66
2023/06/29 08:57:07;;;;;;;14.88;13.18;;;23.10;62.60;;;;;;5054898;28;20181;-66
2023/06/29 08:59:33;;;;;;;15.02;13.40;;;23.10;62.50;;;;;;5055567;28;20175;-67
2023/06/29 09:01:59;;;;;;;14.57;13.13;;;23.10;62.50;;;;;;5054235;28;20175;-66
2023/06/29 09:04:25;;;;;;;14.95;13.35;;;23.10;62.30;;;;;;5054934;28;20182;-67
2023/06/29 09:06:53;;;;;;;16.00;14.35;;;23.20;62.30;;;;;;5055779;28;20175;-66
2023/06/29 09:09:19;;;;;;;15.85;13.90;;;23.20;62.20;;;;;;5055131;28;20184;-66
2023/06/29 09:11:45;;;;;;;15.63;14.00;;;23.20;62.10;;;;;;5054744;28;20182;-66
2023/06/29 09:14:11;;;;;;;16.10;13.90;;;23.20;62.20;;;;;;5054991;28;20281;-66
2023/06/29 09:16:53;;;;;;;15.10;13.10;;;23.20;62.10;;;;;;5055252;28;20179;-65
2023/06/29 09:19:19;;;;;;;16.08;13.48;;;23.20;62.00;;;;;;5053236;28;20179;-65
2023/06/29 09:21:47;;;;;;;15.23;13.73;;;23.20;61.90;;;;;;5055269;28;20190;-66
2023/06/29 09:24:14;;;;;;;14.57;13.07;;;23.20;61.90;;;;;;5055130;28;20183;-65
2023/06/29 09:26:39;;;;;;;13.35;12.02;;;23.30;61.80;;;;;;5054347;28;20175;-65
2023/06/29 09:29:05;;;;;;;15.25;13.65;;;23.30;61.80;;;;;;5055066;28;20190;-66
2023/06/29 09:31:33;;;;;;;14.10;12.60;;;23.30;62.60;;;;;;5054456;28;20723;-67
2023/06/29 09:34:17;;;;;;;15.55;13.95;;;23.30;61.70;;;;;;5054786;28;20685;-66
2023/06/29 09:36:43;;;;;;;15.48;13.80;;;23.30;61.70;;;;;;5054887;28;20179;-66
2023/06/29 09:39:09;;;;;;;15.57;13.32;;;23.40;61.70;;;;;;5054053;28;20227;-67
2023/06/29 09:41:54;;;;;;;16.52;13.77;;;23.30;61.60;;;;;;5054847;28;20179;-66
2023/06/29 09:44:20;;;;;;;15.07;13.48;;;23.30;61.70;;;;;;5054588;28;20258;-66
2023/06/29 09:47:04;;;;;;;16.13;14.27;;;23.30;61.60;;;;;;5054102;28;20171;-66
2023/06/29 09:49:30;;;;;;;16.02;13.32;;;23.30;61.60;;;;;;5054710;28;20175;-67
2023/06/29 09:52:03;;;;;;;14.30;12.90;;;23.30;61.60;;;;;;5054621;28;20179;-67
2023/06/29 09:54:33;;;;;;;14.57;13.00;;;23.40;61.50;;;;;;5053926;28;20215;-67
2023/06/29 09:56:58;;;;;;;14.73;13.15;;;23.40;61.30;;;;;;5053287;28;20179;-67
2023/06/29 09:59:24;;;;;;;15.35;13.82;;;23.50;61.20;;;;;;5053211;28;20172;-66
2023/06/29 10:01:49;;;;;;;15.35;13.75;;;23.50;61.10;;;;;;5053702;28;20262;-67
2023/06/29 10:04:15;;;;;;;14.27;12.48;;;23.50;61.10;;;;;;5054333;28;20274;-67
2023/06/29 10:06:46;;;;;;;14.88;13.38;;;23.50;60.90;;;;;;5053401;28;20251;-67
2023/06/29 10:09:13;;;;;;;13.90;12.50;;;23.60;60.80;;;;;;5054117;28;20183;-67
2023/06/29 10:11:38;;;;;;;14.48;12.85;;;23.70;60.70;;;;;;5053092;28;20175;-66
2023/06/29 10:14:05;;;;;;;14.00;12.60;;;23.70;60.60;;;;;;5052022;28;20620;-66
2023/06/29 10:16:43;;;;;;;15.40;13.80;;;23.70;60.60;;;;;;5054266;28;20175;-66
2023/06/29 10:19:29;;;;;;;15.00;13.40;;;23.70;60.60;;;;;;5052896;28;20199;-66
2023/06/29 10:22:00;;;;;;;16.23;13.25;;;23.70;60.70;;;;;;5053108;28;20273;-66
2023/06/29 10:24:29;;;;;;;14.38;12.85;;;23.60;60.70;;;;;;5052856;28;20541;-65
2023/06/29 10:26:56;;;;;;;14.10;12.70;;;23.70;60.70;;;;;;5054003;28;20612;-65
2023/06/29 10:29:22;;;;;;;14.77;13.20;;;23.60;60.80;;;;;;5052251;28;20175;-66
2023/06/29 10:31:48;;;;;;;14.20;12.50;;;23.60;60.80;;;;;;5052744;28;20626;-67
2023/06/29 10:34:13;;;;;;;15.48;13.88;;;23.60;60.90;;;;;;5053395;28;20648;-66
2023/06/29 10:36:46;;;;;;;14.45;12.98;;;23.50;60.90;;;;;;5053122;28;20270;-65
2023/06/29 10:39:43;;;;;;;14.18;12.68;;;23.50;61.00;;;;;;5053505;28;20227;-66
2023/06/29 10:42:22;;;;;;;14.88;13.25;;;23.60;60.90;;;;;;5052952;28;20183;-66
2023/06/29 10:44:47;;;;;;;14.07;12.57;;;23.60;61.70;;;;;;5053928;28;20171;-66
2023/06/29 10:47:37;;;;;;;14.23;12.68;;;23.60;60.80;;;;;;5059498;28;20186;-67
2023/06/29 10:50:08;;;;;;;14.93;13.32;;;23.70;60.70;;;;;;5064399;28;20183;-66
2023/06/29 10:52:34;;;;;;;14.18;12.65;;;23.70;60.50;;;;;;5053582;28;20549;-65
2023/06/29 10:55:15;;;;;;;13.43;12.10;;;23.70;60.40;;;;;;5066551;28;20657;-66
2023/06/29 10:57:47;;;;;;;13.55;11.68;;;23.70;60.40;;;;;;5072348;28;20206;-65
2023/06/29 11:00:13;;;;;;;14.80;13.30;;;23.70;60.40;;;;;;5073155;28;20174;-67
2023/06/29 11:02:40;;;;;;;13.60;12.23;;;23.70;60.40;;;;;;5064362;28;20220;-66
2023/06/29 11:05:05;;;;;;;15.23;13.73;;;23.70;60.20;;;;;;5051205;28;20175;-66
2023/06/29 11:07:31;;;;;;;14.40;12.73;;;23.80;60.10;;;;;;5052397;28;20535;-66
2023/06/29 11:10:00;;;;;;;14.75;13.23;;;23.70;60.10;;;;;;5051173;28;20179;-65
2023/06/29 11:12:26;;;;;;;14.63;13.02;;;23.80;61.10;;;;;;5052949;28;20171;-66
2023/06/29 11:14:51;;;;;;;15.60;12.93;;;23.70;60.20;;;;;;5053240;28;20570;-64
2023/06/29 11:17:17;;;;;;;12.77;11.07;;;23.70;60.20;;;;;;5052239;28;20175;-66
2023/06/29 11:19:45;;;;;;;13.70;12.27;;;23.70;60.10;;;;;;5059239;28;20202;-65
2023/06/29 11:22:10;;;;;;;14.40;12.50;;;23.80;60.20;;;;;;5072693;28;20220;-65
2023/06/29 11:24:36;;;;;;;13.90;12.40;;;23.80;60.20;;;;;;5072421;28;20182;-64
2023/06/29 11:27:02;;;;;;;13.52;12.10;;;23.80;60.20;;;;;;5072651;28;20539;-65
2023/06/29 11:29:28;;;;;;;14.15;12.75;;;23.70;60.10;;;;;;5072854;28;20170;-65
2023/06/29 11:31:54;;;;;;;13.82;12.13;;;23.70;60.10;;;;;;5072207;28;20758;-67
2023/06/29 11:34:19;;;;;;;14.32;12.38;;;23.70;60.10;;;;;;5072540;28;20297;-66
2023/06/29 11:36:46;;;;;;;14.50;12.82;;;23.70;60.10;;;;;;5072849;28;20171;-65
2023/06/29 11:39:12;;;;;;;13.65;12.23;;;23.80;60.10;;;;;;5070613;28;20226;-65
2023/06/29 11:41:39;;;;;;;14.35;12.05;;;23.80;60.00;;;;;;5072794;28;20717;-65
2023/06/29 11:44:05;;;;;;;13.98;12.50;;;23.90;60.00;;;;;;5072695;28;20224;-66
2023/06/29 11:46:34;;;;;;;14.13;12.70;;;23.90;59.90;;;;;;5072265;28;20170;-66
2023/06/29 11:49:04;;;;;;;13.52;12.13;;;23.90;59.90;;;;;;5072406;28;20202;-68
2023/06/29 11:51:33;;;;;;;14.23;12.50;;;23.90;59.80;;;;;;5071637;28;20307;-67
2023/06/29 11:53:58;;;;;;;13.55;12.20;;;23.90;59.80;;;;;;5051095;28;20293;-66
2023/06/29 11:56:40;;;;;;;14.30;12.38;;;23.90;59.80;;;;;;5051671;28;20250;-67
2023/06/29 11:59:06;;;;;;;15.73;12.93;;;23.90;59.70;;;;;;5051651;28;20201;-67
2023/06/29 12:01:32;;;;;;;14.32;12.85;;;23.90;59.70;;;;;;5052653;28;20187;-67
2023/06/29 12:03:58;;;;;;;14.05;11.85;;;23.90;59.70;;;;;;5052364;28;20183;-67
2023/06/29 12:06:23;;;;;;;14.18;12.32;;;23.90;59.60;;;;;;5052183;28;20185;-67
2023/06/29 12:08:52;;;;;;;13.73;12.18;;;24.00;59.60;;;;;;5051523;28;20179;-65
2023/06/29 12:11:18;;;;;;;15.07;12.07;;;24.00;59.50;;;;;;5052304;28;20171;-66
2023/06/29 12:13:45;;;;;;;14.43;12.93;;;24.10;59.50;;;;;;5051689;28;20206;-65
2023/06/29 12:16:10;;;;;;;14.80;12.88;;;24.10;59.40;;;;;;5052057;28;20179;-66
2023/06/29 12:18:36;;;;;;;14.68;12.70;;;24.10;59.30;;;;;;5052537;28;20221;-66
2023/06/29 12:21:02;;;;;;;15.55;12.10;;;24.20;60.00;;;;;;5051409;28;20175;-66
2023/06/29 12:23:27;;;;;;;13.90;12.35;;;24.20;59.30;;;;;;5051159;28;20622;-65
2023/06/29 12:25:53;;;;;;;13.23;11.68;;;24.20;59.30;;;;;;5052485;28;20179;-65